createdAt,value
2022-12-28T00:02:18.452Z,123.03
2022-12-28T00:05:06.883Z,131.40
2022-12-28T00:07:54.902Z,122.57
2022-12-28T00:11:09.463Z,119.10
2022-12-28T00:13:50.820Z,113.83
2022-12-28T00:16:41.686Z,116.27
2022-12-28T00:19:29.743Z,128.40
2022-12-28T00:22:17.709Z,123.83
2022-12-28T00:25:06.630Z,117.20
2022-12-28T00:27:54.568Z,124.63
2022-12-28T00:30:42.532Z,115.47
2022-12-28T00:33:31.900Z,121.17
2022-12-28T00:36:20.025Z,112.47
2022-12-28T00:39:08.653Z,123.67
2022-12-28T00:41:56.585Z,126.90
2022-12-28T00:44:44.966Z,107.13
2022-12-28T00:47:32.882Z,124.97
2022-12-28T00:50:22.183Z,124.93
2022-12-28T00:53:10.218Z,128.10
2022-12-28T00:56:05.785Z,122.27
2022-12-28T00:58:58.297Z,116.20
2022-12-28T01:01:46.336Z,123.53
2022-12-28T01:04:35.289Z,134.43
2022-12-28T01:07:24.547Z,126.37
2022-12-28T01:10:12.527Z,136.50
2022-12-28T01:13:00.451Z,132.27
2022-12-28T01:15:48.402Z,136.57
2022-12-28T01:18:36.375Z,132.07
2022-12-28T01:21:26.035Z,142.13
2022-12-28T01:24:15.318Z,144.20
2022-12-28T01:27:03.256Z,152.97
2022-12-28T01:29:51.611Z,146.33
2022-12-28T01:32:39.559Z,155.67
2022-12-28T01:35:28.571Z,151.87
2022-12-28T01:38:16.512Z,154.80
2022-12-28T01:41:07.907Z,159.63
2022-12-28T01:44:44.953Z,140.20
2022-12-28T01:47:36.613Z,139.17
2022-12-28T01:50:28.061Z,143.90
2022-12-28T01:53:16.627Z,141.97
2022-12-28T01:56:06.475Z,144.83
2022-12-28T01:58:55.874Z,152.97
2022-12-28T02:01:44.407Z,156.70
2022-12-28T02:04:32.394Z,141.63
2022-12-28T02:07:31.096Z,148.17
2022-12-28T02:10:44.188Z,135.50
2022-12-28T02:13:29.818Z,132.53
2022-12-28T02:16:18.900Z,126.30
2022-12-28T02:19:10.263Z,135.60
2022-12-28T02:22:14.662Z,148.17
2022-12-28T02:25:25.753Z,124.90
2022-12-28T02:28:30.988Z,122.27
2022-12-28T02:31:27.907Z,126.37
2022-12-28T02:34:23.798Z,128.63
2022-12-28T02:37:17.250Z,122.93
2022-12-28T02:40:10.586Z,135.50
2022-12-28T02:42:59.018Z,121.73
2022-12-28T02:46:06.091Z,131.73
2022-12-28T02:49:12.933Z,128.10
2022-12-28T02:52:09.699Z,130.87
2022-12-28T02:55:38.939Z,133.37
2022-12-28T02:58:55.915Z,113.50
2022-12-28T03:02:05.555Z,123.37
2022-12-28T03:05:11.521Z,142.53
2022-12-28T03:08:20.137Z,115.40
2022-12-28T03:11:16.020Z,122.43
2022-12-28T03:14:09.147Z,133.63
2022-12-28T03:17:18.510Z,130.90
2022-12-28T03:20:30.196Z,129.30
2022-12-28T03:23:41.747Z,134.50
2022-12-28T03:26:50.768Z,125.07
2022-12-28T03:30:01.725Z,128.63
2022-12-28T03:32:51.633Z,127.97
2022-12-28T03:35:47.039Z,117.53
2022-12-28T03:38:45.006Z,137.07
2022-12-28T03:41:38.815Z,129.43
2022-12-28T03:44:52.725Z,127.90
2022-12-28T03:47:43.501Z,126.77
2022-12-28T03:50:35.924Z,121.47
2022-12-28T03:53:30.123Z,132.30
2022-12-28T03:56:21.467Z,142.37
2022-12-28T03:59:10.492Z,125.57
2022-12-28T04:02:02.888Z,126.80
2022-12-28T04:04:52.843Z,140.30
2022-12-28T04:07:40.909Z,135.07
2022-12-28T04:10:30.284Z,136.27
2022-12-28T04:13:19.363Z,136.80
2022-12-28T04:16:14.769Z,131.00
2022-12-28T04:19:04.384Z,126.10
2022-12-28T04:21:52.736Z,145.03
2022-12-28T04:24:41.576Z,125.87
2022-12-28T04:27:31.075Z,124.17
2022-12-28T04:30:24.111Z,133.57
2022-12-28T04:33:12.234Z,132.07
2022-12-28T04:36:06.876Z,143.17
2022-12-28T04:38:55.350Z,137.23
2022-12-28T04:41:43.307Z,138.30
2022-12-28T04:44:33.444Z,139.03
2022-12-28T04:47:21.462Z,122.20
2022-12-28T04:50:09.952Z,132.20
2022-12-28T04:52:59.139Z,132.80
2022-12-28T04:55:47.284Z,136.80
2022-12-28T04:58:35.242Z,138.83
2022-12-28T05:01:24.619Z,144.73
2022-12-28T05:04:12.769Z,138.37
2022-12-28T05:07:00.673Z,144.17
2022-12-28T05:09:48.597Z,134.60
2022-12-28T05:12:36.568Z,149.27
2022-12-28T05:15:24.515Z,138.50
2022-12-28T05:18:13.747Z,141.63
2022-12-28T05:21:04.615Z,139.43
2022-12-28T05:23:53.922Z,146.10
2022-12-28T05:26:41.954Z,150.17
2022-12-28T05:29:29.957Z,141.13
2022-12-28T05:32:18.065Z,152.67
2022-12-28T05:35:09.039Z,140.47
2022-12-28T05:37:56.947Z,148.17
2022-12-28T05:40:44.906Z,144.90
2022-12-28T05:43:33.028Z,147.40
2022-12-28T05:46:24.158Z,141.83
2022-12-28T05:49:12.250Z,156.87
2022-12-28T05:52:01.889Z,150.93
2022-12-28T05:54:49.802Z,132.03
2022-12-28T05:57:37.740Z,155.47
2022-12-28T06:00:25.763Z,151.03
2022-12-28T06:03:13.749Z,137.77
2022-12-28T06:06:09.828Z,147.90
2022-12-28T06:08:59.373Z,137.13
2022-12-28T06:11:47.470Z,142.30
2022-12-28T06:14:35.390Z,143.70
2022-12-28T06:17:23.301Z,144.97
2022-12-28T06:20:12.221Z,152.00
2022-12-28T06:23:00.119Z,150.10
2022-12-28T06:25:49.389Z,153.17
2022-12-28T06:28:37.977Z,140.73
2022-12-28T06:31:28.213Z,147.83
2022-12-28T06:34:16.166Z,151.63
2022-12-28T06:37:04.341Z,144.00
2022-12-28T06:39:52.250Z,150.00
2022-12-28T06:42:41.499Z,148.13
2022-12-28T06:45:29.474Z,145.37
2022-12-28T06:48:17.469Z,133.83
2022-12-28T06:51:07.224Z,139.57
2022-12-28T06:53:55.803Z,141.63
2022-12-28T06:56:43.689Z,150.10
2022-12-28T06:59:32.964Z,146.43
2022-12-28T07:02:21.074Z,160.50
2022-12-28T07:04:48.755Z,171.80
2022-12-28T07:07:16.387Z,148.00
2022-12-28T07:09:44.676Z,151.27
2022-12-28T07:12:12.411Z,163.87
2022-12-28T07:14:41.458Z,151.07
2022-12-28T07:17:09.180Z,157.63
2022-12-28T07:19:36.797Z,165.33
2022-12-28T07:22:04.435Z,149.97
2022-12-28T07:24:32.080Z,159.13
2022-12-28T07:26:59.688Z,164.57
2022-12-28T07:29:27.381Z,146.10
2022-12-28T07:31:56.611Z,163.73
2022-12-28T07:34:24.712Z,162.03
2022-12-28T07:36:52.428Z,158.90
2022-12-28T07:39:20.201Z,155.93
2022-12-28T07:41:47.830Z,165.40
2022-12-28T07:44:23.827Z,157.53
2022-12-28T07:46:53.174Z,159.70
2022-12-28T07:49:22.165Z,170.73
2022-12-28T07:51:50.002Z,160.93
2022-12-28T07:54:17.616Z,165.27
2022-12-28T07:56:45.244Z,178.97
2022-12-28T07:59:14.172Z,179.07
2022-12-28T08:01:41.920Z,169.50
2022-12-28T08:04:13.154Z,169.77
2022-12-28T08:06:44.164Z,178.87
2022-12-28T08:09:14.115Z,157.93
2022-12-28T08:11:43.603Z,167.47
2022-12-28T08:14:12.489Z,169.63
2022-12-28T08:16:42.360Z,152.60
2022-12-28T08:19:10.654Z,165.83
2022-12-28T08:21:40.737Z,165.77
2022-12-28T08:24:14.182Z,162.60
2022-12-28T08:26:42.309Z,168.73
2022-12-28T08:29:12.334Z,181.57
2022-12-28T08:31:42.077Z,189.97
2022-12-28T08:34:13.818Z,191.70
2022-12-28T08:36:41.772Z,183.20
2022-12-28T08:39:10.967Z,199.07
2022-12-28T08:41:38.860Z,210.53
2022-12-28T08:44:07.218Z,200.67
2022-12-28T08:46:37.028Z,197.03
2022-12-28T08:49:05.762Z,189.37
2022-12-28T08:51:35.255Z,207.77
2022-12-28T08:54:04.089Z,203.07
2022-12-28T08:56:35.008Z,208.60
2022-12-28T08:59:02.997Z,199.27
2022-12-28T09:01:38.954Z,217.77
2022-12-28T09:04:15.220Z,221.03
2022-12-28T09:06:43.192Z,242.67
2022-12-28T09:09:13.164Z,255.37
2022-12-28T09:11:42.215Z,256.93
2022-12-28T09:14:18.477Z,250.87
2022-12-28T09:16:50.157Z,269.90
2022-12-28T09:19:17.819Z,289.93
2022-12-28T09:21:48.859Z,288.00
2022-12-28T09:24:16.575Z,267.03
2022-12-28T09:26:45.759Z,303.03
2022-12-28T09:29:14.657Z,269.40
2022-12-28T09:31:44.296Z,304.70
2022-12-28T09:37:01.372Z,286.10
2022-12-28T09:39:29.555Z,295.03
2022-12-28T09:42:01.368Z,279.07
2022-12-28T09:44:41.066Z,273.70
2022-12-28T09:47:18.441Z,251.87
2022-12-28T09:49:56.952Z,281.47
2022-12-28T09:52:29.783Z,287.33
2022-12-28T09:55:06.127Z,284.13
2022-12-28T09:57:38.774Z,282.87
2022-12-28T10:00:15.869Z,305.10
2022-12-28T10:02:49.093Z,286.73
2022-12-28T10:05:17.036Z,314.40
2022-12-28T10:07:44.823Z,294.63
2022-12-28T10:10:17.463Z,304.03
2022-12-28T10:12:47.792Z,314.90
2022-12-28T10:15:15.977Z,301.60
2022-12-28T10:17:44.626Z,323.20
2022-12-28T10:20:17.776Z,333.20
2022-12-28T10:22:50.263Z,321.10
2022-12-28T10:25:20.555Z,313.93
2022-12-28T10:27:50.419Z,301.63
2022-12-28T10:30:20.811Z,307.13
2022-12-28T10:32:58.048Z,297.40
2022-12-28T10:35:33.185Z,297.90
2022-12-28T10:38:04.521Z,316.13
2022-12-28T10:40:34.618Z,305.80
2022-12-28T10:43:10.107Z,298.90
2022-12-28T10:45:42.047Z,306.43
2022-12-28T10:48:15.622Z,291.60
2022-12-28T10:50:52.468Z,300.77
2022-12-28T10:53:26.335Z,320.47
2022-12-28T10:56:06.704Z,292.07
2022-12-28T10:58:35.900Z,295.73
2022-12-28T11:01:08.650Z,329.13
2022-12-28T11:03:38.363Z,308.80
2022-12-28T11:06:22.732Z,311.03
2022-12-28T11:09:04.664Z,327.93
2022-12-28T11:11:32.550Z,290.53
2022-12-28T11:14:05.507Z,321.43
2022-12-28T11:16:37.802Z,296.43
2022-12-28T11:19:05.811Z,305.73
2022-12-28T11:21:35.906Z,331.93
2022-12-28T11:24:05.284Z,325.73
2022-12-28T11:26:34.668Z,344.07
2022-12-28T11:29:03.702Z,316.73
2022-12-28T11:31:36.058Z,331.63
2022-12-28T11:34:07.302Z,338.37
2022-12-28T11:36:40.471Z,320.23
2022-12-28T11:39:44.683Z,321.77
2022-12-28T11:42:39.078Z,310.87
2022-12-28T11:45:03.013Z,302.47
2022-12-28T11:47:33.894Z,318.93
2022-12-28T11:50:42.317Z,329.40
2022-12-28T11:53:54.855Z,277.80
2022-12-28T11:56:24.407Z,294.50
2022-12-28T11:59:23.085Z,289.73
2022-12-28T12:01:54.244Z,305.23
2022-12-28T12:04:43.299Z,296.30
2022-12-28T12:07:30.598Z,315.60
2022-12-28T12:10:21.156Z,296.33
2022-12-28T12:12:51.381Z,312.93
2022-12-28T12:15:21.470Z,330.10
2022-12-28T12:17:56.053Z,303.07
2022-12-28T12:20:45.319Z,317.53
2022-12-28T12:23:24.573Z,304.67
2022-12-28T12:25:54.624Z,330.70
2022-12-28T12:28:34.020Z,353.93
2022-12-28T12:31:04.020Z,332.73
2022-12-28T12:33:36.858Z,308.30
2022-12-28T12:36:21.332Z,335.90
2022-12-28T12:39:08.743Z,300.67
2022-12-28T12:41:46.841Z,307.43
2022-12-28T12:44:24.424Z,321.30
2022-12-28T12:47:21.531Z,316.73
2022-12-28T12:50:19.562Z,307.27
2022-12-28T12:52:55.747Z,318.33
2022-12-28T12:55:39.746Z,311.13
2022-12-28T12:58:17.475Z,305.97
2022-12-28T13:00:51.941Z,316.50
2022-12-28T13:03:29.298Z,324.40
2022-12-28T13:05:59.404Z,314.43
2022-12-28T13:08:32.177Z,322.10
2022-12-28T13:10:59.936Z,325.10
2022-12-28T13:13:32.087Z,319.07
2022-12-28T13:16:03.905Z,319.53
2022-12-28T13:18:48.106Z,341.57
2022-12-28T13:21:22.043Z,321.33
2022-12-28T13:23:51.840Z,305.40
2022-12-28T13:26:24.450Z,319.40
2022-12-28T13:28:56.747Z,319.07
2022-12-28T13:31:30.051Z,322.93
2022-12-28T13:33:59.528Z,328.30
2022-12-28T13:36:28.870Z,321.17
2022-12-28T13:39:12.629Z,337.30
2022-12-28T13:41:48.063Z,320.23
2022-12-28T13:44:48.419Z,321.63
2022-12-28T13:47:23.134Z,313.27
2022-12-28T13:49:57.802Z,331.53
2022-12-28T13:52:31.935Z,325.90
2022-12-28T13:55:04.522Z,324.67
2022-12-28T13:57:57.414Z,329.08
2022-12-28T14:00:24.065Z,321.43
2022-12-28T14:02:54.912Z,343.42
2022-12-28T14:05:25.982Z,343.13
2022-12-28T14:07:57.287Z,342.95
2022-12-28T14:10:25.599Z,342.48
2022-12-28T14:12:54.688Z,359.98
2022-12-28T14:15:23.225Z,346.10
2022-12-28T14:17:52.513Z,348.95
2022-12-28T14:20:20.363Z,361.90
2022-12-28T14:22:48.141Z,350.85
2022-12-28T14:25:19.588Z,351.45
2022-12-28T14:27:57.351Z,346.47
2022-12-28T14:30:27.625Z,334.23
2022-12-28T14:32:55.908Z,353.48
2022-12-28T14:35:25.705Z,338.95
2022-12-28T14:37:55.632Z,366.00
2022-12-28T14:40:29.034Z,340.92
2022-12-28T14:42:57.679Z,347.38
2022-12-28T14:46:05.872Z,354.20
2022-12-28T14:48:33.395Z,332.50
2022-12-28T14:51:03.814Z,337.48
2022-12-28T14:53:32.084Z,362.65
2022-12-28T14:56:06.173Z,345.27
2022-12-28T14:58:47.893Z,367.17
2022-12-28T15:01:20.596Z,331.40
2022-12-28T15:03:50.904Z,349.27
2022-12-28T15:06:19.985Z,345.95
2022-12-28T15:08:49.663Z,369.50
2022-12-28T15:11:20.423Z,338.05
2022-12-28T15:13:49.072Z,343.42
2022-12-28T15:16:18.383Z,357.08
2022-12-28T15:18:46.475Z,341.67
2022-12-28T15:21:17.292Z,327.92
2022-12-28T15:23:48.844Z,337.38
2022-12-28T15:26:16.487Z,340.95
2022-12-28T15:28:45.522Z,335.85
2022-12-28T15:31:15.197Z,323.52
2022-12-28T15:33:42.921Z,328.80
2022-12-28T15:36:17.335Z,337.90
2022-12-28T15:38:46.061Z,323.50
2022-12-28T15:41:27.862Z,330.40
2022-12-28T15:43:56.864Z,345.20
2022-12-28T15:46:24.677Z,335.17
2022-12-28T15:48:52.489Z,342.95
2022-12-28T15:51:20.442Z,322.85
2022-12-28T15:53:48.180Z,306.15
2022-12-28T15:56:21.630Z,323.45
2022-12-28T15:58:49.402Z,323.30
2022-12-28T16:01:18.542Z,318.30
2022-12-28T16:03:46.273Z,309.73
2022-12-28T16:06:13.942Z,336.23
2022-12-28T16:08:41.925Z,310.03
2022-12-28T16:11:11.012Z,323.52
2022-12-28T16:13:38.719Z,313.38
2022-12-28T16:16:07.003Z,307.52
2022-12-28T16:18:36.249Z,321.13
2022-12-28T16:21:06.102Z,307.40
2022-12-28T16:23:36.294Z,320.85
2022-12-28T16:26:04.952Z,312.08
2022-12-28T16:28:32.832Z,327.67
2022-12-28T16:31:00.540Z,323.80
2022-12-28T16:33:28.865Z,329.60
2022-12-28T16:35:59.871Z,319.63
2022-12-28T16:38:30.421Z,324.20
2022-12-28T16:40:58.172Z,315.03
2022-12-28T16:43:25.878Z,315.80
2022-12-28T16:45:54.639Z,326.33
2022-12-28T16:48:22.318Z,333.15
2022-12-28T16:50:59.732Z,306.05
2022-12-28T16:53:27.843Z,297.13
2022-12-28T16:55:56.460Z,304.83
2022-12-28T16:58:24.101Z,317.42
2022-12-28T17:00:52.611Z,317.83
2022-12-28T17:03:20.455Z,323.70
2022-12-28T17:05:50.911Z,299.15
2022-12-28T17:08:20.304Z,314.95
2022-12-28T17:10:48.195Z,314.63
2022-12-28T17:13:16.309Z,311.15
2022-12-28T17:15:45.738Z,313.27
2022-12-28T17:18:13.658Z,325.45
2022-12-28T17:20:42.075Z,300.10
2022-12-28T17:23:09.897Z,322.37
2022-12-28T17:25:38.887Z,309.60
2022-12-28T17:28:06.578Z,325.73
2022-12-28T17:30:34.945Z,328.25
2022-12-28T17:33:02.655Z,296.98
2022-12-28T17:35:30.507Z,303.37
2022-12-28T17:37:58.391Z,312.33
2022-12-28T17:40:26.039Z,299.60
2022-12-28T17:42:55.135Z,308.77
2022-12-28T17:45:22.847Z,317.02
2022-12-28T17:47:50.549Z,322.20
2022-12-28T17:50:19.985Z,317.40
2022-12-28T17:52:47.637Z,305.17
2022-12-28T17:55:15.551Z,306.90
2022-12-28T17:57:43.235Z,310.55
2022-12-28T18:00:13.804Z,321.05
2022-12-28T18:02:41.909Z,303.23
2022-12-28T18:05:10.536Z,312.37
2022-12-28T18:07:38.192Z,293.65
2022-12-28T18:10:06.644Z,310.20
2022-12-28T18:12:34.393Z,306.37
2022-12-28T18:15:02.092Z,323.48
2022-12-28T18:17:31.307Z,314.50
2022-12-28T18:19:58.965Z,314.40
2022-12-28T18:22:26.689Z,305.58
2022-12-28T18:24:54.740Z,308.77
2022-12-28T18:27:22.456Z,313.33
2022-12-28T18:29:51.997Z,325.30
2022-12-28T18:32:19.823Z,318.97
2022-12-28T18:34:48.825Z,302.20
2022-12-28T18:37:16.468Z,326.00
2022-12-28T18:39:44.122Z,282.63
2022-12-28T18:42:11.820Z,315.37
2022-12-28T18:44:39.476Z,302.67
2022-12-28T18:47:07.141Z,303.47
2022-12-28T18:49:34.773Z,296.70
2022-12-28T18:52:04.185Z,286.70
2022-12-28T18:54:32.012Z,296.77
2022-12-28T18:56:59.739Z,308.42
2022-12-28T18:59:27.536Z,297.13
2022-12-28T19:02:06.361Z,300.00
2022-12-28T19:04:34.967Z,297.05
2022-12-28T19:07:04.316Z,314.50
2022-12-28T19:09:32.168Z,314.75
2022-12-28T19:12:00.008Z,318.97
2022-12-28T19:14:27.769Z,303.48
2022-12-28T19:16:55.410Z,296.48
2022-12-28T19:19:23.116Z,311.67
2022-12-28T19:21:56.541Z,296.10
2022-12-28T19:24:27.702Z,300.90
2022-12-28T19:26:55.409Z,302.77
2022-12-28T19:29:23.781Z,317.05
2022-12-28T19:31:51.797Z,318.50
2022-12-28T19:34:19.551Z,319.50
2022-12-28T19:36:47.277Z,313.73
2022-12-28T19:39:14.975Z,335.75
2022-12-28T19:41:44.166Z,317.15
2022-12-28T19:44:12.016Z,325.50
2022-12-28T19:46:39.744Z,338.85
2022-12-28T19:49:07.426Z,309.20
2022-12-28T19:51:35.403Z,336.58
2022-12-28T19:54:03.401Z,316.40
2022-12-28T19:56:31.806Z,319.27
2022-12-28T19:59:06.209Z,320.10
2022-12-28T20:01:36.580Z,322.83
2022-12-28T20:04:12.297Z,322.20
2022-12-28T20:06:40.871Z,328.17
2022-12-28T20:09:08.839Z,307.35
2022-12-28T20:11:36.819Z,307.90
2022-12-28T20:14:07.016Z,317.83
2022-12-28T20:16:36.072Z,324.05
2022-12-28T20:19:06.598Z,311.80
2022-12-28T20:21:35.664Z,315.00
2022-12-28T20:24:03.715Z,321.52
2022-12-28T20:26:32.608Z,330.67
2022-12-28T20:29:01.347Z,333.13
2022-12-28T20:31:30.953Z,312.52
2022-12-28T20:33:58.877Z,303.73
2022-12-28T20:36:28.497Z,313.85
2022-12-28T20:38:57.349Z,324.88
2022-12-28T20:41:45.545Z,310.10
2022-12-28T20:44:15.675Z,322.23
2022-12-28T20:46:45.410Z,311.52
2022-12-28T20:49:14.037Z,316.85
2022-12-28T20:51:42.264Z,316.02
2022-12-28T20:54:10.595Z,313.67
2022-12-28T20:56:38.598Z,319.63
2022-12-28T20:59:07.261Z,311.98
2022-12-28T21:01:36.055Z,330.38
2022-12-28T21:04:24.791Z,320.10
2022-12-28T21:07:13.067Z,335.00
2022-12-28T21:10:01.037Z,320.10
2022-12-28T21:12:48.985Z,316.40
2022-12-28T21:15:40.699Z,309.35
2022-12-28T21:18:28.617Z,316.08
2022-12-28T21:21:19.814Z,313.02
2022-12-28T21:24:08.298Z,323.83
2022-12-28T21:26:56.297Z,322.83
2022-12-28T21:29:44.252Z,318.42
2022-12-28T21:32:32.235Z,315.80
2022-12-28T21:35:20.182Z,318.13
2022-12-28T21:38:09.521Z,305.73
2022-12-28T21:40:59.297Z,319.13
2022-12-28T21:43:47.249Z,323.80
2022-12-28T21:46:35.372Z,313.10
2022-12-28T21:49:23.365Z,303.55
2022-12-28T21:52:11.352Z,312.08
2022-12-28T21:55:21.179Z,307.23
2022-12-28T21:58:09.358Z,313.00
2022-12-28T22:01:17.969Z,314.23
2022-12-28T22:04:23.508Z,315.75
2022-12-28T22:07:14.906Z,295.20
2022-12-28T22:10:22.773Z,308.30
2022-12-28T22:13:10.741Z,312.63
2022-12-28T22:15:58.774Z,317.05
2022-12-28T22:19:02.154Z,325.02
2022-12-28T22:21:50.940Z,313.27
2022-12-28T22:24:38.865Z,314.45
2022-12-28T22:27:28.289Z,310.33
2022-12-28T22:30:16.345Z,322.45
2022-12-28T22:33:04.748Z,301.55
2022-12-28T22:35:52.640Z,303.13
2022-12-28T22:38:40.828Z,313.65
2022-12-28T22:41:28.837Z,318.98
2022-12-28T22:44:18.174Z,331.35
2022-12-28T22:47:06.254Z,306.15
2022-12-28T22:49:54.279Z,321.55
2022-12-28T22:52:42.557Z,302.63
2022-12-28T22:55:30.481Z,316.95
2022-12-28T22:58:18.409Z,302.23
2022-12-28T23:01:10.539Z,319.55
2022-12-28T23:03:58.529Z,306.35
2022-12-28T23:06:46.645Z,311.88
2022-12-28T23:09:34.758Z,314.92
2022-12-28T23:12:22.726Z,298.13
2022-12-28T23:15:19.410Z,313.13
2022-12-28T23:18:22.752Z,320.67
2022-12-28T23:21:35.703Z,300.42
2022-12-28T23:24:41.495Z,313.02
2022-12-28T23:27:34.498Z,309.38
2022-12-28T23:30:23.274Z,296.23
2022-12-28T23:33:12.690Z,313.42
2022-12-28T23:36:02.567Z,307.00
2022-12-28T23:38:51.690Z,326.55
2022-12-28T23:41:48.928Z,311.85
2022-12-28T23:44:36.931Z,320.08
2022-12-28T23:47:24.941Z,312.45
2022-12-28T23:50:16.081Z,313.52
2022-12-28T23:53:04.047Z,290.02
2022-12-28T23:55:51.953Z,313.05
2022-12-28T23:58:39.929Z,301.23
